sensor_id;sensor_type;location;lat;lon;timestamp;temperature;humidity
71096;DHT22;58753;49.440;11.126;2022-12-24T00:01:11;10.36;91.37
71096;DHT22;58753;49.440;11.126;2022-12-24T00:03:36;10.33;91.22
71096;DHT22;58753;49.440;11.126;2022-12-24T00:06:14;10.29;91.23
71096;DHT22;58753;49.440;11.126;2022-12-24T00:08:40;10.33;91.20
71096;DHT22;58753;49.440;11.126;2022-12-24T00:11:05;10.31;90.99
71096;DHT22;58753;49.440;11.126;2022-12-24T00:13:31;10.25;90.95
71096;DHT22;58753;49.440;11.126;2022-12-24T00:15:57;10.27;91.03
71096;DHT22;58753;49.440;11.126;2022-12-24T00:18:22;10.30;90.94
71096;DHT22;58753;49.440;11.126;2022-12-24T00:20:48;10.25;90.80
71096;DHT22;58753;49.440;11.126;2022-12-24T00:23:15;10.27;90.77
71096;DHT22;58753;49.440;11.126;2022-12-24T00:25:40;10.24;90.61
71096;DHT22;58753;49.440;11.126;2022-12-24T00:28:06;10.24;90.50
71096;DHT22;58753;49.440;11.126;2022-12-24T00:30:31;10.25;90.51
71096;DHT22;58753;49.440;11.126;2022-12-24T00:32:57;10.31;90.42
71096;DHT22;58753;49.440;11.126;2022-12-24T00:35:22;10.33;90.30
71096;DHT22;58753;49.440;11.126;2022-12-24T00:37:48;10.31;90.20
71096;DHT22;58753;49.440;11.126;2022-12-24T00:40:15;10.33;90.05
71096;DHT22;58753;49.440;11.126;2022-12-24T00:42:40;10.33;89.88
71096;DHT22;58753;49.440;11.126;2022-12-24T00:45:06;10.34;89.84
71096;DHT22;58753;49.440;11.126;2022-12-24T00:47:32;10.37;89.68
71096;DHT22;58753;49.440;11.126;2022-12-24T00:49:57;10.36;89.36
71096;DHT22;58753;49.440;11.126;2022-12-24T00:52:23;10.31;89.28
71096;DHT22;58753;49.440;11.126;2022-12-24T00:54:48;10.33;89.25
71096;DHT22;58753;49.440;11.126;2022-12-24T00:57:13;10.27;89.03
71096;DHT22;58753;49.440;11.126;2022-12-24T00:59:39;10.27;88.77
71096;DHT22;58753;49.440;11.126;2022-12-24T01:02:04;10.25;88.61
71096;DHT22;58753;49.440;11.126;2022-12-24T01:04:29;10.33;88.50
71096;DHT22;58753;49.440;11.126;2022-12-24T01:07:13;10.34;88.17
71096;DHT22;58753;49.440;11.126;2022-12-24T01:09:39;10.30;88.09
71096;DHT22;58753;49.440;11.126;2022-12-24T01:12:04;10.36;87.82
71096;DHT22;58753;49.440;11.126;2022-12-24T01:14:30;10.34;87.46
71096;DHT22;58753;49.440;11.126;2022-12-24T01:16:55;10.36;87.43
71096;DHT22;58753;49.440;11.126;2022-12-24T01:19:20;10.36;87.24
71096;DHT22;58753;49.440;11.126;2022-12-24T01:21:46;10.33;87.02
71096;DHT22;58753;49.440;11.126;2022-12-24T01:24:15;10.23;86.82
71096;DHT22;58753;49.440;11.126;2022-12-24T01:26:41;10.21;86.83
71096;DHT22;58753;49.440;11.126;2022-12-24T01:29:07;10.23;86.73
71096;DHT22;58753;49.440;11.126;2022-12-24T01:31:32;10.21;86.43
71096;DHT22;58753;49.440;11.126;2022-12-24T01:33:57;10.21;86.27
71096;DHT22;58753;49.440;11.126;2022-12-24T01:36:23;10.21;86.18
71096;DHT22;58753;49.440;11.126;2022-12-24T01:38:48;10.23;85.98
71096;DHT22;58753;49.440;11.126;2022-12-24T01:41:16;10.17;85.74
71096;DHT22;58753;49.440;11.126;2022-12-24T01:46:54;9.99;85.33
71096;DHT22;58753;49.440;11.126;2022-12-24T01:49:21;9.96;85.28
71096;DHT22;58753;49.440;11.126;2022-12-24T01:52:01;9.99;85.08
71096;DHT22;58753;49.440;11.126;2022-12-24T01:54:31;9.83;84.90
71096;DHT22;58753;49.440;11.126;2022-12-24T01:57:04;9.79;84.89
71096;DHT22;58753;49.440;11.126;2022-12-24T01:59:33;9.72;84.99
71096;DHT22;58753;49.440;11.126;2022-12-24T02:01:59;9.65;84.97
71096;DHT22;58753;49.440;11.126;2022-12-24T02:07:00;9.59;85.19
71096;DHT22;58753;49.440;11.126;2022-12-24T02:09:26;9.59;85.12
71096;DHT22;58753;49.440;11.126;2022-12-24T02:11:51;9.63;85.24
71096;DHT22;58753;49.440;11.126;2022-12-24T02:14:17;9.65;85.22
71096;DHT22;58753;49.440;11.126;2022-12-24T02:19:48;9.73;85.20
71096;DHT22;58753;49.440;11.126;2022-12-24T02:31:02;9.92;84.41
71096;DHT22;58753;49.440;11.126;2022-12-24T02:33:37;9.89;84.21
71096;DHT22;58753;49.440;11.126;2022-12-24T02:36:22;9.90;84.20
71096;DHT22;58753;49.440;11.126;2022-12-24T02:39:02;9.97;84.06
71096;DHT22;58753;49.440;11.126;2022-12-24T02:41:41;9.97;83.88
71096;DHT22;58753;49.440;11.126;2022-12-24T02:44:27;9.97;83.72
71096;DHT22;58753;49.440;11.126;2022-12-24T02:46:55;9.99;83.78
71096;DHT22;58753;49.440;11.126;2022-12-24T02:49:21;10.00;83.70
71096;DHT22;58753;49.440;11.126;2022-12-24T02:51:47;9.93;83.45
71096;DHT22;58753;49.440;11.126;2022-12-24T02:54:13;9.94;83.68
71096;DHT22;58753;49.440;11.126;2022-12-24T02:57:06;9.93;83.53
71096;DHT22;58753;49.440;11.126;2022-12-24T02:59:56;9.86;83.61
71096;DHT22;58753;49.440;11.126;2022-12-24T03:11:02;9.65;84.35
71096;DHT22;58753;49.440;11.126;2022-12-24T03:13:31;9.56;84.22
71096;DHT22;58753;49.440;11.126;2022-12-24T03:15:56;9.46;84.38
71096;DHT22;58753;49.440;11.126;2022-12-24T03:18:23;9.45;84.84
71096;DHT22;58753;49.440;11.126;2022-12-24T03:21:56;9.50;85.15
71096;DHT22;58753;49.440;11.126;2022-12-24T03:23:50;9.48;85.35
71096;DHT22;58753;49.440;11.126;2022-12-24T03:26:17;9.49;85.31
71096;DHT22;58753;49.440;11.126;2022-12-24T03:28:43;9.43;85.40
71096;DHT22;58753;49.440;11.126;2022-12-24T03:31:10;9.42;85.72
71096;DHT22;58753;49.440;11.126;2022-12-24T03:33:36;9.40;85.72
71096;DHT22;58753;49.440;11.126;2022-12-24T03:36:03;9.38;85.86
71096;DHT22;58753;49.440;11.126;2022-12-24T03:38:29;9.36;86.16
71096;DHT22;58753;49.440;11.126;2022-12-24T03:40:54;9.34;86.20
71096;DHT22;58753;49.440;11.126;2022-12-24T03:43:20;9.29;86.36
71096;DHT22;58753;49.440;11.126;2022-12-24T03:45:45;9.31;86.64
71096;DHT22;58753;49.440;11.126;2022-12-24T03:48:10;9.25;86.74
71096;DHT22;58753;49.440;11.126;2022-12-24T03:50:36;9.25;86.82
71096;DHT22;58753;49.440;11.126;2022-12-24T03:53:01;9.21;86.86
71096;DHT22;58753;49.440;11.126;2022-12-24T03:55:27;9.18;87.16
71096;DHT22;58753;49.440;11.126;2022-12-24T03:57:52;9.15;87.16
71096;DHT22;58753;49.440;11.126;2022-12-24T04:00:18;9.10;87.07
71096;DHT22;58753;49.440;11.126;2022-12-24T04:02:43;9.10;87.38
71096;DHT22;58753;49.440;11.126;2022-12-24T04:05:17;9.03;87.27
71096;DHT22;58753;49.440;11.126;2022-12-24T04:07:43;8.92;87.23
71096;DHT22;58753;49.440;11.126;2022-12-24T04:10:09;8.87;87.26
71096;DHT22;58753;49.440;11.126;2022-12-24T04:12:35;8.80;87.47
71096;DHT22;58753;49.440;11.126;2022-12-24T04:15:01;8.77;87.54
71096;DHT22;58753;49.440;11.126;2022-12-24T04:17:26;8.68;87.58
71096;DHT22;58753;49.440;11.126;2022-12-24T04:19:51;8.66;87.83
71096;DHT22;58753;49.440;11.126;2022-12-24T04:22:17;8.64;87.99
71096;DHT22;58753;49.440;11.126;2022-12-24T04:24:42;8.68;88.02
71096;DHT22;58753;49.440;11.126;2022-12-24T04:27:08;8.67;87.98
71096;DHT22;58753;49.440;11.126;2022-12-24T04:29:33;8.68;88.07
71096;DHT22;58753;49.440;11.126;2022-12-24T04:31:59;8.73;88.11
71096;DHT22;58753;49.440;11.126;2022-12-24T04:34:24;8.74;88.00
71096;DHT22;58753;49.440;11.126;2022-12-24T04:36:49;8.74;87.84
71096;DHT22;58753;49.440;11.126;2022-12-24T04:39:15;8.78;87.89
71096;DHT22;58753;49.440;11.126;2022-12-24T04:41:40;8.85;87.91
71096;DHT22;58753;49.440;11.126;2022-12-24T04:44:05;8.87;87.48
71096;DHT22;58753;49.440;11.126;2022-12-24T04:46:31;8.91;87.31
71096;DHT22;58753;49.440;11.126;2022-12-24T04:48:57;8.88;87.08
71096;DHT22;58753;49.440;11.126;2022-12-24T04:51:24;8.88;86.99
71096;DHT22;58753;49.440;11.126;2022-12-24T04:53:51;8.91;86.82
71096;DHT22;58753;49.440;11.126;2022-12-24T04:56:22;8.96;86.73
71096;DHT22;58753;49.440;11.126;2022-12-24T04:58:48;8.98;86.52
71096;DHT22;58753;49.440;11.126;2022-12-24T05:01:17;9.01;86.32
71096;DHT22;58753;49.440;11.126;2022-12-24T05:03:42;9.01;86.05
71096;DHT22;58753;49.440;11.126;2022-12-24T05:06:11;9.01;86.00
71096;DHT22;58753;49.440;11.126;2022-12-24T05:08:37;9.03;85.66
71096;DHT22;58753;49.440;11.126;2022-12-24T05:11:02;8.98;85.72
71096;DHT22;58753;49.440;11.126;2022-12-24T05:13:28;8.97;85.66
71096;DHT22;58753;49.440;11.126;2022-12-24T05:15:54;8.97;85.59
71096;DHT22;58753;49.440;11.126;2022-12-24T05:18:19;8.96;85.62
71096;DHT22;58753;49.440;11.126;2022-12-24T05:20:46;8.94;85.65
71096;DHT22;58753;49.440;11.126;2022-12-24T05:23:16;8.94;85.71
71096;DHT22;58753;49.440;11.126;2022-12-24T05:26:00;8.97;85.77
71096;DHT22;58753;49.440;11.126;2022-12-24T05:28:44;9.01;85.69
71096;DHT22;58753;49.440;11.126;2022-12-24T05:31:09;9.00;85.72
71096;DHT22;58753;49.440;11.126;2022-12-24T05:33:35;9.01;85.71
71096;DHT22;58753;49.440;11.126;2022-12-24T05:36:00;9.04;85.74
71096;DHT22;58753;49.440;11.126;2022-12-24T05:38:25;9.01;85.73
71096;DHT22;58753;49.440;11.126;2022-12-24T05:40:51;8.97;85.87
71096;DHT22;58753;49.440;11.126;2022-12-24T05:43:16;9.05;86.05
71096;DHT22;58753;49.440;11.126;2022-12-24T05:45:41;9.07;85.93
71096;DHT22;58753;49.440;11.126;2022-12-24T05:48:07;9.10;86.03
71096;DHT22;58753;49.440;11.126;2022-12-24T05:50:33;9.12;86.08
71096;DHT22;58753;49.440;11.126;2022-12-24T05:52:59;9.05;86.06
71096;DHT22;58753;49.440;11.126;2022-12-24T05:55:25;9.07;86.12
71096;DHT22;58753;49.440;11.126;2022-12-24T05:57:50;9.04;86.11
71096;DHT22;58753;49.440;11.126;2022-12-24T06:00:16;9.04;86.15
71096;DHT22;58753;49.440;11.126;2022-12-24T06:02:41;9.04;86.28
71096;DHT22;58753;49.440;11.126;2022-12-24T06:05:07;9.05;86.36
71096;DHT22;58753;49.440;11.126;2022-12-24T06:07:33;9.00;86.28
71096;DHT22;58753;49.440;11.126;2022-12-24T06:09:58;8.92;86.26
71096;DHT22;58753;49.440;11.126;2022-12-24T06:12:24;8.88;86.46
71096;DHT22;58753;49.440;11.126;2022-12-24T06:14:49;8.92;86.73
71096;DHT22;58753;49.440;11.126;2022-12-24T06:17:14;8.97;86.78
71096;DHT22;58753;49.440;11.126;2022-12-24T06:19:40;9.03;86.75
71096;DHT22;58753;49.440;11.126;2022-12-24T06:22:05;8.97;86.72
71096;DHT22;58753;49.440;11.126;2022-12-24T06:24:30;8.98;86.70
71096;DHT22;58753;49.440;11.126;2022-12-24T06:26:56;8.98;86.81
71096;DHT22;58753;49.440;11.126;2022-12-24T06:29:21;9.04;86.90
71096;DHT22;58753;49.440;11.126;2022-12-24T06:31:47;9.05;86.73
71096;DHT22;58753;49.440;11.126;2022-12-24T06:34:12;9.01;86.66
71096;DHT22;58753;49.440;11.126;2022-12-24T06:36:37;9.01;86.75
71096;DHT22;58753;49.440;11.126;2022-12-24T06:39:03;9.04;86.76
71096;DHT22;58753;49.440;11.126;2022-12-24T06:41:28;9.04;86.64
71096;DHT22;58753;49.440;11.126;2022-12-24T06:43:53;9.04;86.72
71096;DHT22;58753;49.440;11.126;2022-12-24T06:46:19;9.00;86.74
71096;DHT22;58753;49.440;11.126;2022-12-24T06:48:46;8.97;86.63
71096;DHT22;58753;49.440;11.126;2022-12-24T06:51:13;9.00;86.78
71096;DHT22;58753;49.440;11.126;2022-12-24T06:53:39;9.04;86.79
71096;DHT22;58753;49.440;11.126;2022-12-24T06:56:07;9.01;86.71
71096;DHT22;58753;49.440;11.126;2022-12-24T06:58:34;9.01;86.75
71096;DHT22;58753;49.440;11.126;2022-12-24T07:01:01;8.97;86.73
71096;DHT22;58753;49.440;11.126;2022-12-24T07:03:27;8.96;86.81
71096;DHT22;58753;49.440;11.126;2022-12-24T07:05:53;8.87;87.01
71096;DHT22;58753;49.440;11.126;2022-12-24T07:08:18;8.83;87.36
71096;DHT22;58753;49.440;11.126;2022-12-24T07:10:43;8.77;87.57
71096;DHT22;58753;49.440;11.126;2022-12-24T07:13:09;8.67;87.63
71096;DHT22;58753;49.440;11.126;2022-12-24T07:15:34;8.61;87.83
71096;DHT22;58753;49.440;11.126;2022-12-24T07:17:59;8.57;88.12
71096;DHT22;58753;49.440;11.126;2022-12-24T07:20:25;8.53;88.31
71096;DHT22;58753;49.440;11.126;2022-12-24T07:22:50;8.46;88.49
71096;DHT22;58753;49.440;11.126;2022-12-24T07:25:16;8.47;88.71
71096;DHT22;58753;49.440;11.126;2022-12-24T07:27:41;8.43;88.74
71096;DHT22;58753;49.440;11.126;2022-12-24T07:30:07;8.36;88.98
71096;DHT22;58753;49.440;11.126;2022-12-24T07:32:33;8.39;89.23
71096;DHT22;58753;49.440;11.126;2022-12-24T07:34:58;8.37;89.36
71096;DHT22;58753;49.440;11.126;2022-12-24T07:37:24;8.44;89.63
71096;DHT22;58753;49.440;11.126;2022-12-24T07:39:49;8.42;89.66
71096;DHT22;58753;49.440;11.126;2022-12-24T07:42:15;8.50;89.83
71096;DHT22;58753;49.440;11.126;2022-12-24T07:44:40;8.50;89.82
71096;DHT22;58753;49.440;11.126;2022-12-24T07:47:05;8.56;89.94
71096;DHT22;58753;49.440;11.126;2022-12-24T07:49:31;8.59;90.00
71096;DHT22;58753;49.440;11.126;2022-12-24T07:51:56;8.60;89.93
71096;DHT22;58753;49.440;11.126;2022-12-24T07:54:22;8.64;89.88
71096;DHT22;58753;49.440;11.126;2022-12-24T07:56:48;8.60;89.81
71096;DHT22;58753;49.440;11.126;2022-12-24T07:59:13;8.61;89.86
71096;DHT22;58753;49.440;11.126;2022-12-24T08:01:39;8.57;89.90
71096;DHT22;58753;49.440;11.126;2022-12-24T08:04:04;8.52;89.88
71096;DHT22;58753;49.440;11.126;2022-12-24T08:06:30;8.47;89.83
71096;DHT22;58753;49.440;11.126;2022-12-24T08:08:55;8.49;90.03
71096;DHT22;58753;49.440;11.126;2022-12-24T08:11:21;8.60;90.21
71096;DHT22;58753;49.440;11.126;2022-12-24T08:13:46;8.68;90.23
71096;DHT22;58753;49.440;11.126;2022-12-24T08:16:11;8.77;90.16
71096;DHT22;58753;49.440;11.126;2022-12-24T08:18:37;8.85;90.10
71096;DHT22;58753;49.440;11.126;2022-12-24T08:21:05;8.98;89.94
71096;DHT22;58753;49.440;11.126;2022-12-24T08:23:30;9.05;89.77
71096;DHT22;58753;49.440;11.126;2022-12-24T08:25:56;9.11;89.59
71096;DHT22;58753;49.440;11.126;2022-12-24T08:28:21;9.14;89.42
71096;DHT22;58753;49.440;11.126;2022-12-24T08:30:48;9.19;89.27
71096;DHT22;58753;49.440;11.126;2022-12-24T08:33:14;9.22;89.11
71096;DHT22;58753;49.440;11.126;2022-12-24T08:35:39;9.22;88.98
71096;DHT22;58753;49.440;11.126;2022-12-24T08:38:05;9.22;88.94
71096;DHT22;58753;49.440;11.126;2022-12-24T08:40:30;9.21;88.80
71096;DHT22;58753;49.440;11.126;2022-12-24T08:42:55;9.22;88.71
71096;DHT22;58753;49.440;11.126;2022-12-24T08:45:21;9.19;88.62
71096;DHT22;58753;49.440;11.126;2022-12-24T08:47:46;9.21;88.67
71096;DHT22;58753;49.440;11.126;2022-12-24T08:50:12;9.28;88.60
71096;DHT22;58753;49.440;11.126;2022-12-24T08:52:37;9.28;88.49
71096;DHT22;58753;49.440;11.126;2022-12-24T08:55:03;9.28;88.39
71096;DHT22;58753;49.440;11.126;2022-12-24T08:57:29;9.29;88.40
71096;DHT22;58753;49.440;11.126;2022-12-24T08:59:54;9.29;88.32
71096;DHT22;58753;49.440;11.126;2022-12-24T09:02:20;9.25;88.23
71096;DHT22;58753;49.440;11.126;2022-12-24T09:04:45;9.22;88.28
71096;DHT22;58753;49.440;11.126;2022-12-24T09:07:11;9.21;88.31
71096;DHT22;58753;49.440;11.126;2022-12-24T09:09:36;9.24;88.27
71096;DHT22;58753;49.440;11.126;2022-12-24T09:12:05;9.24;88.25
71096;DHT22;58753;49.440;11.126;2022-12-24T09:14:31;9.24;88.21
71096;DHT22;58753;49.440;11.126;2022-12-24T09:16:57;9.24;88.29
71096;DHT22;58753;49.440;11.126;2022-12-24T09:19:22;9.27;88.22
71096;DHT22;58753;49.440;11.126;2022-12-24T09:21:47;9.27;88.24
71096;DHT22;58753;49.440;11.126;2022-12-24T09:24:14;9.29;88.16
71096;DHT22;58753;49.440;11.126;2022-12-24T09:26:40;9.35;88.12
71096;DHT22;58753;49.440;11.126;2022-12-24T09:29:06;9.43;88.08
71096;DHT22;58753;49.440;11.126;2022-12-24T09:31:32;9.52;87.87
71096;DHT22;58753;49.440;11.126;2022-12-24T09:33:57;9.65;87.63
71096;DHT22;58753;49.440;11.126;2022-12-24T09:36:22;9.72;87.38
71096;DHT22;58753;49.440;11.126;2022-12-24T09:38:48;9.78;87.13
71096;DHT22;58753;49.440;11.126;2022-12-24T09:43:46;9.87;86.70
71096;DHT22;58753;49.440;11.126;2022-12-24T09:48:48;9.86;86.16
71096;DHT22;58753;49.440;11.126;2022-12-24T09:51:38;9.85;85.93
71096;DHT22;58753;49.440;11.126;2022-12-24T09:54:24;9.83;85.83
71096;DHT22;58753;49.440;11.126;2022-12-24T09:56:52;9.82;85.72
71096;DHT22;58753;49.440;11.126;2022-12-24T09:59:25;9.85;85.53
71096;DHT22;58753;49.440;11.126;2022-12-24T10:01:53;9.82;85.42
71096;DHT22;58753;49.440;11.126;2022-12-24T10:04:22;9.76;85.41
71096;DHT22;58753;49.440;11.126;2022-12-24T10:12:40;9.75;85.39
71096;DHT22;58753;49.440;11.126;2022-12-24T10:23:37;10.00;84.87
71096;DHT22;58753;49.440;11.126;2022-12-24T10:26:14;10.21;84.69
71096;DHT22;58753;49.440;11.126;2022-12-24T10:29:09;10.33;84.26
71096;DHT22;58753;49.440;11.126;2022-12-24T10:31:44;10.44;83.81
71096;DHT22;58753;49.440;11.126;2022-12-24T10:34:18;10.51;83.38
71096;DHT22;58753;49.440;11.126;2022-12-24T10:36:45;10.63;83.21
71096;DHT22;58753;49.440;11.126;2022-12-24T10:39:19;10.85;82.92
71096;DHT22;58753;49.440;11.126;2022-12-24T10:41:47;10.96;82.32
71096;DHT22;58753;49.440;11.126;2022-12-24T10:44:16;11.04;81.74
71096;DHT22;58753;49.440;11.126;2022-12-24T10:46:43;11.01;81.64
71096;DHT22;58753;49.440;11.126;2022-12-24T10:49:15;11.01;81.49
71096;DHT22;58753;49.440;11.126;2022-12-24T10:51:51;11.02;81.35
71096;DHT22;58753;49.440;11.126;2022-12-24T10:54:19;11.08;81.24
71096;DHT22;58753;49.440;11.126;2022-12-24T10:56:47;11.05;80.80
71096;DHT22;58753;49.440;11.126;2022-12-24T11:02:08;11.14;80.69
71096;DHT22;58753;49.440;11.126;2022-12-24T11:04:49;11.12;80.34
71096;DHT22;58753;49.440;11.126;2022-12-24T11:07:19;11.14;80.24
71096;DHT22;58753;49.440;11.126;2022-12-24T11:10:04;11.12;80.03
71096;DHT22;58753;49.440;11.126;2022-12-24T11:12:32;11.11;79.80
71096;DHT22;58753;49.440;11.126;2022-12-24T11:15:07;11.09;79.81
71096;DHT22;58753;49.440;11.126;2022-12-24T11:17:39;11.12;79.80
71096;DHT22;58753;49.440;11.126;2022-12-24T11:20:05;11.19;79.74
71096;DHT22;58753;49.440;11.126;2022-12-24T11:22:32;11.22;79.47
71096;DHT22;58753;49.440;11.126;2022-12-24T11:25:06;11.36;79.35
71096;DHT22;58753;49.440;11.126;2022-12-24T11:27:44;11.57;79.09
71096;DHT22;58753;49.440;11.126;2022-12-24T11:32:39;12.58;78.84
71096;DHT22;58753;49.440;11.126;2022-12-24T11:35:15;12.93;77.03
71096;DHT22;58753;49.440;11.126;2022-12-24T11:37:40;13.80;75.89
71096;DHT22;58753;49.440;11.126;2022-12-24T11:40:18;13.56;74.23
71096;DHT22;58753;49.440;11.126;2022-12-24T11:42:44;13.15;73.06
71096;DHT22;58753;49.440;11.126;2022-12-24T11:45:23;12.82;72.84
71096;DHT22;58753;49.440;11.126;2022-12-24T11:47:50;12.58;72.80
71096;DHT22;58753;49.440;11.126;2022-12-24T11:50:29;12.38;72.79
71096;DHT22;58753;49.440;11.126;2022-12-24T11:55:46;12.37;73.15
71096;DHT22;58753;49.440;11.126;2022-12-24T12:03:39;12.13;72.67
71096;DHT22;58753;49.440;11.126;2022-12-24T12:06:15;12.07;72.89
71096;DHT22;58753;49.440;11.126;2022-12-24T12:08:45;12.07;72.85
71096;DHT22;58753;49.440;11.126;2022-12-24T12:11:12;12.10;72.96
71096;DHT22;58753;49.440;11.126;2022-12-24T12:13:40;12.08;72.87
71096;DHT22;58753;49.440;11.126;2022-12-24T12:16:29;12.05;72.80
71096;DHT22;58753;49.440;11.126;2022-12-24T12:19:18;12.08;72.80
71096;DHT22;58753;49.440;11.126;2022-12-24T12:21:45;12.14;72.93
71096;DHT22;58753;49.440;11.126;2022-12-24T12:24:20;12.14;72.72
71096;DHT22;58753;49.440;11.126;2022-12-24T12:26:48;12.14;72.66
71096;DHT22;58753;49.440;11.126;2022-12-24T12:29:35;12.08;72.68
71096;DHT22;58753;49.440;11.126;2022-12-24T12:32:14;12.02;72.70
71096;DHT22;58753;49.440;11.126;2022-12-24T12:34:44;12.02;72.87
71096;DHT22;58753;49.440;11.126;2022-12-24T12:37:39;11.98;73.03
71096;DHT22;58753;49.440;11.126;2022-12-24T12:40:14;11.98;73.32
71096;DHT22;58753;49.440;11.126;2022-12-24T12:42:44;12.01;73.33
71096;DHT22;58753;49.440;11.126;2022-12-24T12:45:25;12.00;73.47
71096;DHT22;58753;49.440;11.126;2022-12-24T12:48:03;12.00;73.58
71096;DHT22;58753;49.440;11.126;2022-12-24T12:50:37;12.02;73.71
71096;DHT22;58753;49.440;11.126;2022-12-24T13:01:28;12.27;71.87
71096;DHT22;58753;49.440;11.126;2022-12-24T13:04:16;12.05;71.37
71096;DHT22;58753;49.440;11.126;2022-12-24T13:07:13;11.86;71.69
71096;DHT22;58753;49.440;11.126;2022-12-24T13:12:57;11.95;72.31
71096;DHT22;58753;49.440;11.126;2022-12-24T13:15:46;12.20;72.08
71096;DHT22;58753;49.440;11.126;2022-12-24T13:21:02;12.37;71.57
71096;DHT22;58753;49.440;11.126;2022-12-24T13:23:27;12.56;71.69
71096;DHT22;58753;49.440;11.126;2022-12-24T13:25:56;12.72;71.03
71096;DHT22;58753;49.440;11.126;2022-12-24T13:30:52;12.69;70.29
71096;DHT22;58753;49.440;11.126;2022-12-24T13:36:06;12.71;69.95
71096;DHT22;58753;49.440;11.126;2022-12-24T13:47:00;12.11;69.32
71096;DHT22;58753;49.440;11.126;2022-12-24T13:49:39;11.93;69.66
71096;DHT22;58753;49.440;11.126;2022-12-24T13:54:37;11.69;70.15
71096;DHT22;58753;49.440;11.126;2022-12-24T14:02:52;11.77;70.00
71096;DHT22;58753;49.440;11.126;2022-12-24T14:08:15;11.60;69.84
71096;DHT22;58753;49.440;11.126;2022-12-24T14:10:45;11.46;69.98
71096;DHT22;58753;49.440;11.126;2022-12-24T14:13:51;11.40;70.27
71096;DHT22;58753;49.440;11.126;2022-12-24T14:16:22;11.33;70.59
71096;DHT22;58753;49.440;11.126;2022-12-24T14:21:43;11.11;71.53
71096;DHT22;58753;49.440;11.126;2022-12-24T14:24:36;11.09;71.80
71096;DHT22;58753;49.440;11.126;2022-12-24T14:27:12;11.04;72.14
71096;DHT22;58753;49.440;11.126;2022-12-24T14:29:47;10.92;72.49
71096;DHT22;58753;49.440;11.126;2022-12-24T14:32:15;10.84;72.66
71096;DHT22;58753;49.440;11.126;2022-12-24T14:34:40;10.74;72.93
71096;DHT22;58753;49.440;11.126;2022-12-24T14:37:09;10.69;73.45
71096;DHT22;58753;49.440;11.126;2022-12-24T14:39:39;10.68;73.79
71096;DHT22;58753;49.440;11.126;2022-12-24T14:45:02;10.61;74.24
71096;DHT22;58753;49.440;11.126;2022-12-24T14:53:53;10.33;74.95
71096;DHT22;58753;49.440;11.126;2022-12-24T14:56:18;10.29;75.34
71096;DHT22;58753;49.440;11.126;2022-12-24T14:58:45;10.30;75.36
71096;DHT22;58753;49.440;11.126;2022-12-24T15:01:23;10.25;75.58
71096;DHT22;58753;49.440;11.126;2022-12-24T15:04:00;10.24;75.57
71096;DHT22;58753;49.440;11.126;2022-12-24T15:06:26;10.16;75.66
71096;DHT22;58753;49.440;11.126;2022-12-24T15:08:52;10.04;75.86
71096;DHT22;58753;49.440;11.126;2022-12-24T15:11:20;9.96;76.06
71096;DHT22;58753;49.440;11.126;2022-12-24T15:13:48;9.87;76.26
71096;DHT22;58753;49.440;11.126;2022-12-24T15:16:27;9.78;76.41
71096;DHT22;58753;49.440;11.126;2022-12-24T15:19:00;9.69;76.76
71096;DHT22;58753;49.440;11.126;2022-12-24T15:21:35;9.62;77.07
71096;DHT22;58753;49.440;11.126;2022-12-24T15:24:02;9.60;77.46
71096;DHT22;58753;49.440;11.126;2022-12-24T15:26:32;9.70;78.11
71096;DHT22;58753;49.440;11.126;2022-12-24T15:29:15;9.72;78.12
71096;DHT22;58753;49.440;11.126;2022-12-24T15:31:41;9.60;77.98
71096;DHT22;58753;49.440;11.126;2022-12-24T15:34:27;9.50;78.39
71096;DHT22;58753;49.440;11.126;2022-12-24T15:37:01;9.40;78.59
71096;DHT22;58753;49.440;11.126;2022-12-24T15:39:27;9.35;78.84
71096;DHT22;58753;49.440;11.126;2022-12-24T15:41:52;9.32;79.19
71096;DHT22;58753;49.440;11.126;2022-12-24T15:44:37;9.27;79.26
71096;DHT22;58753;49.440;11.126;2022-12-24T15:47:07;9.11;79.13
71096;DHT22;58753;49.440;11.126;2022-12-24T15:49:38;9.00;79.34
71096;DHT22;58753;49.440;11.126;2022-12-24T15:52:06;8.84;79.45
71096;DHT22;58753;49.440;11.126;2022-12-24T15:54:32;8.74;79.69
71096;DHT22;58753;49.440;11.126;2022-12-24T15:56:58;8.57;79.82
71096;DHT22;58753;49.440;11.126;2022-12-24T15:59:29;8.47;80.08
71096;DHT22;58753;49.440;11.126;2022-12-24T16:02:16;8.39;80.47
71096;DHT22;58753;49.440;11.126;2022-12-24T16:04:41;8.30;80.67
71096;DHT22;58753;49.440;11.126;2022-12-24T16:07:10;8.21;80.80
71096;DHT22;58753;49.440;11.126;2022-12-24T16:09:47;8.07;81.06
71096;DHT22;58753;49.440;11.126;2022-12-24T16:12:22;8.03;81.44
71096;DHT22;58753;49.440;11.126;2022-12-24T16:14:55;8.06;82.09
71096;DHT22;58753;49.440;11.126;2022-12-24T16:17:23;8.12;82.26
71096;DHT22;58753;49.440;11.126;2022-12-24T16:19:53;8.09;82.30
71096;DHT22;58753;49.440;11.126;2022-12-24T16:22:21;8.10;82.57
71096;DHT22;58753;49.440;11.126;2022-12-24T16:24:56;8.13;82.71
71096;DHT22;58753;49.440;11.126;2022-12-24T16:27:22;8.12;82.81
71096;DHT22;58753;49.440;11.126;2022-12-24T16:29:47;8.07;83.06
71096;DHT22;58753;49.440;11.126;2022-12-24T16:32:33;8.07;83.05
71096;DHT22;58753;49.440;11.126;2022-12-24T16:35:00;8.01;83.23
71096;DHT22;58753;49.440;11.126;2022-12-24T16:37:26;7.96;83.33
71096;DHT22;58753;49.440;11.126;2022-12-24T16:39:52;7.95;83.52
71096;DHT22;58753;49.440;11.126;2022-12-24T16:42:18;7.93;83.70
71096;DHT22;58753;49.440;11.126;2022-12-24T16:45:02;7.93;84.02
71096;DHT22;58753;49.440;11.126;2022-12-24T16:47:30;7.91;84.12
71096;DHT22;58753;49.440;11.126;2022-12-24T16:49:57;7.89;84.18
71096;DHT22;58753;49.440;11.126;2022-12-24T16:52:26;7.83;84.33
71096;DHT22;58753;49.440;11.126;2022-12-24T16:54:53;7.79;84.35
71096;DHT22;58753;49.440;11.126;2022-12-24T16:57:19;7.78;84.52
71096;DHT22;58753;49.440;11.126;2022-12-24T16:59:44;7.75;84.57
71096;DHT22;58753;49.440;11.126;2022-12-24T17:02:15;7.70;84.64
71096;DHT22;58753;49.440;11.126;2022-12-24T17:04:41;7.64;84.83
71096;DHT22;58753;49.440;11.126;2022-12-24T17:07:09;7.65;85.06
71096;DHT22;58753;49.440;11.126;2022-12-24T17:09:34;7.64;85.10
71096;DHT22;58753;49.440;11.126;2022-12-24T17:11:59;7.64;85.19
71096;DHT22;58753;49.440;11.126;2022-12-24T17:14:25;7.65;85.27
71096;DHT22;58753;49.440;11.126;2022-12-24T17:16:50;7.60;85.35
71096;DHT22;58753;49.440;11.126;2022-12-24T17:19:15;7.57;85.39
71096;DHT22;58753;49.440;11.126;2022-12-24T17:21:41;7.54;85.46
71096;DHT22;58753;49.440;11.126;2022-12-24T17:24:07;7.47;85.58
71096;DHT22;58753;49.440;11.126;2022-12-24T17:26:33;7.41;85.60